createdAt,value
2022-12-24T00:02:13.652Z,22.33
2022-12-24T00:04:41.082Z,24.90
2022-12-24T00:07:09.737Z,31.20
2022-12-24T00:09:37.139Z,63.35
2022-12-24T00:12:04.751Z,16.88
2022-12-24T00:14:32.111Z,27.77
2022-12-24T00:16:59.513Z,24.98
2022-12-24T00:19:27.024Z,24.30
2022-12-24T00:21:55.475Z,15.00
2022-12-24T00:24:24.229Z,130.98
2022-12-24T00:26:51.502Z,24.35
2022-12-24T00:29:18.874Z,27.58
2022-12-24T00:31:46.194Z,20.25
2022-12-24T00:34:13.695Z,22.75
2022-12-24T00:36:40.997Z,18.70
2022-12-24T00:39:08.304Z,27.63
2022-12-24T00:41:37.005Z,24.40
2022-12-24T00:44:05.685Z,21.38
2022-12-24T00:46:34.055Z,22.83
2022-12-24T00:49:01.467Z,26.48
2022-12-24T00:51:29.484Z,18.75
2022-12-24T00:53:57.003Z,27.25
2022-12-24T00:56:24.469Z,27.35
2022-12-24T00:58:53.540Z,24.35
2022-12-24T01:01:21.183Z,18.80
2022-12-24T01:03:49.306Z,33.65
2022-12-24T01:06:16.918Z,23.65
2022-12-24T01:08:44.257Z,19.63
2022-12-24T01:11:11.930Z,19.23
2022-12-24T01:13:39.422Z,21.45
2022-12-24T01:16:15.015Z,23.83
2022-12-24T01:18:42.453Z,17.88
2022-12-24T01:21:09.816Z,19.25
2022-12-24T01:23:37.182Z,19.48
2022-12-24T01:26:05.626Z,13.48
2022-12-24T01:28:33.561Z,24.52
2022-12-24T01:31:00.983Z,11.90
2022-12-24T01:33:31.068Z,13.75
2022-12-24T01:35:58.771Z,13.02
2022-12-24T01:38:26.253Z,22.98
2022-12-24T01:41:11.224Z,17.27
2022-12-24T01:43:38.714Z,14.43
2022-12-24T01:46:08.848Z,20.42
2022-12-24T01:48:39.652Z,22.85
2022-12-24T01:51:10.416Z,20.27
2022-12-24T01:53:45.722Z,25.75
2022-12-24T01:56:13.959Z,21.77
2022-12-24T01:58:43.014Z,25.63
2022-12-24T02:01:10.642Z,15.98
2022-12-24T02:03:39.778Z,22.65
2022-12-24T02:06:08.749Z,20.50
2022-12-24T02:08:40.759Z,21.92
2022-12-24T02:11:11.719Z,19.02
2022-12-24T02:13:39.296Z,19.48
2022-12-24T02:16:14.293Z,15.93
2022-12-24T02:18:48.628Z,20.70
2022-12-24T02:21:31.942Z,23.05
2022-12-24T02:24:26.152Z,29.83
2022-12-24T02:27:01.726Z,19.92
2022-12-24T02:29:39.015Z,17.67
2022-12-24T02:32:11.426Z,21.02
2022-12-24T02:34:40.663Z,19.75
2022-12-24T02:37:11.846Z,21.88
2022-12-24T02:39:41.735Z,18.17
2022-12-24T02:42:09.670Z,18.08
2022-12-24T02:44:40.355Z,25.33
2022-12-24T02:47:09.530Z,24.05
2022-12-24T02:49:37.275Z,20.25
2022-12-24T02:52:04.823Z,22.52
2022-12-24T02:54:32.206Z,23.88
2022-12-24T02:57:09.367Z,20.20
2022-12-24T02:59:45.631Z,24.65
2022-12-24T03:02:23.288Z,25.55
2022-12-24T03:04:55.595Z,14.48
2022-12-24T03:07:25.485Z,17.38
2022-12-24T03:09:57.538Z,16.45
2022-12-24T03:12:27.681Z,13.02
2022-12-24T03:14:55.010Z,14.57
2022-12-24T03:17:23.750Z,19.67
2022-12-24T03:19:51.063Z,10.23
2022-12-24T03:22:19.209Z,12.25
2022-12-24T03:24:46.569Z,7.85
2022-12-24T03:27:15.017Z,10.98
2022-12-24T03:29:42.809Z,13.02
2022-12-24T03:32:10.122Z,9.93
2022-12-24T03:34:38.830Z,11.95
2022-12-24T03:37:06.142Z,11.35
2022-12-24T03:39:33.418Z,10.00
2022-12-24T03:42:00.764Z,10.93
2022-12-24T03:44:28.064Z,9.10
2022-12-24T03:46:55.365Z,11.48
2022-12-24T03:49:22.690Z,10.25
2022-12-24T03:51:51.341Z,11.35
2022-12-24T03:54:18.645Z,9.77
2022-12-24T03:56:45.978Z,8.55
2022-12-24T03:59:13.290Z,11.18
2022-12-24T04:01:40.798Z,8.50
2022-12-24T04:04:08.194Z,8.60
2022-12-24T04:06:35.477Z,8.75
2022-12-24T04:09:05.009Z,11.45
2022-12-24T04:11:33.055Z,7.50
2022-12-24T04:14:00.348Z,7.43
2022-12-24T04:16:27.709Z,10.98
2022-12-24T04:18:55.140Z,9.70
2022-12-24T04:21:22.509Z,12.30
2022-12-24T04:23:49.940Z,7.70
2022-12-24T04:26:18.625Z,5.68
2022-12-24T04:28:45.981Z,8.73
2022-12-24T04:31:14.516Z,8.18
2022-12-24T04:33:42.173Z,9.07
2022-12-24T04:36:11.431Z,14.15
2022-12-24T04:38:38.814Z,9.07
2022-12-24T04:41:07.666Z,8.35
2022-12-24T04:43:36.338Z,12.32
2022-12-24T04:46:06.902Z,14.13
2022-12-24T04:48:34.521Z,14.18
2022-12-24T04:51:02.171Z,10.45
2022-12-24T04:53:29.839Z,9.18
2022-12-24T04:55:57.263Z,13.40
2022-12-24T04:58:24.922Z,11.23
2022-12-24T05:00:53.614Z,10.32
2022-12-24T05:03:21.113Z,7.43
2022-12-24T05:05:48.801Z,14.27
2022-12-24T05:08:16.325Z,8.23
2022-12-24T05:10:43.597Z,11.57
2022-12-24T05:13:10.931Z,16.15
2022-12-24T05:15:38.275Z,19.50
2022-12-24T05:18:07.070Z,12.00
2022-12-24T05:20:34.340Z,14.90
2022-12-24T05:23:19.034Z,16.35
2022-12-24T05:26:03.930Z,15.90
2022-12-24T05:28:31.263Z,35.03
2022-12-24T05:30:58.590Z,16.90
2022-12-24T05:33:27.278Z,12.10
2022-12-24T05:35:54.590Z,23.60
2022-12-24T05:38:21.947Z,15.95
2022-12-24T05:40:49.256Z,15.52
2022-12-24T05:43:16.561Z,13.05
2022-12-24T05:45:43.893Z,19.35
2022-12-24T05:48:11.468Z,17.40
2022-12-24T05:50:41.416Z,13.40
2022-12-24T05:53:09.938Z,19.60
2022-12-24T05:55:37.300Z,18.58
2022-12-24T05:58:04.686Z,18.20
2022-12-24T06:00:32.012Z,15.63
2022-12-24T06:02:59.389Z,22.23
2022-12-24T06:05:26.786Z,23.50
2022-12-24T06:07:55.505Z,16.95
2022-12-24T06:10:22.904Z,25.30
2022-12-24T06:12:50.245Z,18.40
2022-12-24T06:15:23.694Z,23.98
2022-12-24T06:17:51.509Z,22.17
2022-12-24T06:20:18.984Z,19.85
2022-12-24T06:22:46.282Z,21.58
2022-12-24T06:25:14.990Z,21.95
2022-12-24T06:27:42.341Z,25.13
2022-12-24T06:30:10.232Z,25.30
2022-12-24T06:32:37.573Z,26.52
2022-12-24T06:35:05.793Z,20.58
2022-12-24T06:37:33.418Z,24.17
2022-12-24T06:40:00.939Z,24.77
2022-12-24T06:42:29.893Z,24.70
2022-12-24T06:45:00.909Z,23.45
2022-12-24T06:47:31.150Z,22.97
2022-12-24T06:49:58.474Z,26.13
2022-12-24T06:52:25.923Z,24.13
2022-12-24T06:54:53.245Z,30.98
2022-12-24T06:57:20.618Z,34.15
2022-12-24T06:59:49.292Z,29.27
2022-12-24T07:02:16.712Z,30.63
2022-12-24T07:04:44.089Z,21.92
2022-12-24T07:07:11.499Z,24.95
2022-12-24T07:09:38.837Z,31.67
2022-12-24T07:12:06.276Z,28.40
2022-12-24T07:14:33.689Z,19.98
2022-12-24T07:17:02.403Z,24.95
2022-12-24T07:19:29.758Z,20.73
2022-12-24T07:21:57.085Z,22.90
2022-12-24T07:24:24.558Z,21.98
2022-12-24T07:26:51.913Z,23.63
2022-12-24T07:29:19.254Z,26.63
2022-12-24T07:31:46.558Z,29.20
2022-12-24T07:34:15.344Z,30.35
2022-12-24T07:36:42.672Z,20.25
2022-12-24T07:39:10.004Z,31.40
2022-12-24T07:41:41.776Z,29.65
2022-12-24T07:44:12.313Z,24.08
2022-12-24T07:46:39.725Z,28.20
2022-12-24T07:49:07.120Z,27.48
2022-12-24T07:51:35.769Z,35.17
2022-12-24T07:54:04.747Z,33.75
2022-12-24T07:56:32.025Z,22.25
2022-12-24T07:58:59.397Z,27.17
2022-12-24T08:01:26.798Z,36.10
2022-12-24T08:03:54.659Z,32.42
2022-12-24T08:06:22.366Z,25.75
2022-12-24T08:08:51.057Z,26.85
2022-12-24T08:11:18.489Z,30.27
2022-12-24T08:13:45.835Z,23.25
2022-12-24T08:16:13.402Z,32.28
2022-12-24T08:18:40.772Z,26.80
2022-12-24T08:21:08.477Z,28.13
2022-12-24T08:23:35.850Z,30.60
2022-12-24T08:26:07.195Z,25.80
2022-12-24T08:28:34.501Z,32.83
2022-12-24T08:31:01.796Z,24.83
2022-12-24T08:33:29.175Z,29.80
2022-12-24T08:35:56.903Z,23.17
2022-12-24T08:38:24.376Z,32.75
2022-12-24T08:40:53.813Z,26.83
2022-12-24T08:43:22.866Z,25.75
2022-12-24T08:45:50.532Z,25.23
2022-12-24T08:48:18.074Z,20.30
2022-12-24T08:50:45.538Z,29.10
2022-12-24T08:53:14.430Z,21.90
2022-12-24T08:55:42.255Z,27.85
2022-12-24T08:58:09.661Z,28.73
2022-12-24T09:00:38.634Z,25.75
2022-12-24T09:03:06.137Z,27.52
2022-12-24T09:05:33.463Z,20.85
2022-12-24T09:08:00.853Z,28.40
2022-12-24T09:10:28.593Z,29.67
2022-12-24T09:12:55.918Z,26.98
2022-12-24T09:15:23.205Z,28.10
2022-12-24T09:17:52.164Z,24.77
2022-12-24T09:20:19.521Z,24.83
2022-12-24T09:22:46.908Z,25.83
2022-12-24T09:25:14.245Z,28.42
2022-12-24T09:27:41.533Z,28.20
2022-12-24T09:30:09.474Z,23.77
2022-12-24T09:32:36.867Z,30.45
2022-12-24T09:35:06.817Z,29.00
2022-12-24T09:37:34.156Z,23.77
2022-12-24T09:40:01.490Z,28.52
2022-12-24T09:42:33.985Z,36.95
2022-12-24T09:45:04.024Z,26.70
2022-12-24T09:47:34.945Z,23.52
2022-12-24T09:50:03.262Z,28.85
2022-12-24T09:52:34.975Z,32.50
2022-12-24T09:55:07.295Z,28.48
2022-12-24T09:57:36.749Z,27.65
2022-12-24T10:00:05.028Z,22.17
2022-12-24T10:02:33.060Z,29.27
2022-12-24T10:05:00.522Z,25.80
2022-12-24T10:07:32.355Z,22.13
2022-12-24T10:10:03.970Z,26.45
2022-12-24T10:12:36.610Z,32.80
2022-12-24T10:15:08.847Z,32.20
2022-12-24T10:17:43.176Z,35.13
2022-12-24T10:20:26.568Z,35.50
2022-12-24T10:22:55.991Z,31.48
2022-12-24T10:25:27.097Z,34.05
2022-12-24T10:27:55.664Z,33.00
2022-12-24T10:30:23.673Z,26.90
2022-12-24T10:32:51.905Z,29.35
2022-12-24T10:35:21.414Z,31.92
2022-12-24T10:37:49.482Z,29.60
2022-12-24T10:40:22.451Z,24.92
2022-12-24T10:42:51.945Z,34.67
2022-12-24T10:45:21.512Z,37.47
2022-12-24T10:47:50.652Z,39.45
2022-12-24T10:50:20.363Z,33.08
2022-12-24T10:52:48.113Z,26.73
2022-12-24T10:55:23.447Z,28.52
2022-12-24T10:58:00.794Z,22.83
2022-12-24T11:00:35.299Z,30.20
2022-12-24T11:03:07.440Z,24.80
2022-12-24T11:05:36.250Z,25.75
2022-12-24T11:08:03.865Z,26.73
2022-12-24T11:10:31.816Z,35.85
2022-12-24T11:13:35.711Z,32.97
2022-12-24T11:15:47.947Z,29.92
2022-12-24T11:18:15.915Z,41.92
2022-12-24T11:20:50.004Z,30.30
2022-12-24T11:23:17.715Z,39.22
2022-12-24T11:25:49.347Z,29.70
2022-12-24T11:28:22.020Z,30.38
2022-12-24T11:30:57.116Z,29.75
2022-12-24T11:33:24.867Z,23.83
2022-12-24T11:36:02.780Z,26.23
2022-12-24T11:38:31.113Z,19.33
2022-12-24T11:41:00.199Z,24.00
2022-12-24T11:43:44.285Z,21.52
2022-12-24T11:46:16.591Z,32.67
2022-12-24T11:48:44.118Z,26.38
2022-12-24T11:51:20.519Z,26.98
2022-12-24T11:53:49.661Z,27.73
2022-12-24T11:56:23.598Z,27.58
2022-12-24T11:58:54.640Z,26.45
2022-12-24T12:01:23.889Z,22.25
2022-12-24T12:03:52.654Z,24.15
2022-12-24T12:06:26.670Z,30.65
2022-12-24T12:08:56.596Z,30.40
2022-12-24T12:11:26.403Z,24.48
2022-12-24T12:13:56.300Z,25.95
2022-12-24T12:16:26.801Z,36.45
2022-12-24T12:18:56.643Z,32.22
2022-12-24T12:21:26.263Z,35.05
2022-12-24T12:23:55.539Z,27.50
2022-12-24T12:26:25.028Z,27.25
2022-12-24T12:28:55.620Z,23.40
2022-12-24T12:31:26.641Z,35.40
2022-12-24T12:33:57.094Z,25.85
2022-12-24T12:36:29.586Z,27.50
2022-12-24T12:38:56.963Z,19.95
2022-12-24T12:41:37.133Z,35.75
2022-12-24T12:44:19.378Z,33.90
2022-12-24T12:46:56.785Z,24.15
2022-12-24T12:49:29.289Z,39.55
2022-12-24T12:52:00.179Z,33.13
2022-12-24T12:54:38.337Z,26.13
2022-12-24T12:57:08.021Z,32.78
2022-12-24T12:59:38.071Z,20.00
2022-12-24T13:02:18.018Z,29.75
2022-12-24T13:05:15.311Z,21.27
2022-12-24T13:07:51.068Z,23.65
2022-12-24T13:10:36.442Z,21.88
2022-12-24T13:13:20.027Z,29.13
2022-12-24T13:15:54.111Z,28.48
2022-12-24T13:18:39.017Z,23.77
2022-12-24T13:21:06.587Z,21.65
2022-12-24T13:23:33.982Z,16.48
2022-12-24T13:26:11.011Z,23.55
2022-12-24T13:28:38.664Z,19.98
2022-12-24T13:31:33.140Z,28.70
2022-12-24T13:34:04.942Z,18.00
2022-12-24T13:36:51.045Z,23.05
2022-12-24T13:39:19.912Z,22.75
2022-12-24T13:41:51.507Z,28.65
2022-12-24T13:44:22.901Z,24.92
2022-12-24T13:46:56.455Z,20.73
2022-12-24T13:49:27.686Z,24.08
2022-12-24T13:52:06.268Z,19.60
2022-12-24T13:54:33.668Z,18.27
2022-12-24T13:57:01.962Z,22.75
2022-12-24T13:59:38.364Z,17.60
2022-12-24T14:02:06.768Z,23.95
2022-12-24T14:04:37.075Z,21.40
2022-12-24T14:07:05.404Z,20.23
2022-12-24T14:09:33.508Z,17.98
2022-12-24T14:12:30.182Z,25.33
2022-12-24T14:14:57.558Z,13.80
2022-12-24T14:17:25.937Z,18.23
2022-12-24T14:19:55.318Z,28.67
2022-12-24T14:22:29.645Z,17.38
2022-12-24T14:24:57.838Z,25.58
2022-12-24T14:27:26.395Z,28.55
2022-12-24T14:29:57.865Z,19.98
2022-12-24T14:32:25.187Z,23.73
2022-12-24T14:35:07.206Z,26.50
2022-12-24T14:37:35.047Z,24.45
2022-12-24T14:40:02.500Z,26.45
2022-12-24T14:42:34.664Z,20.23
2022-12-24T14:45:06.357Z,22.55
2022-12-24T14:47:38.479Z,24.38
2022-12-24T14:50:21.837Z,23.85
2022-12-24T14:53:05.624Z,23.00
2022-12-24T14:58:18.715Z,24.40
2022-12-24T15:00:46.259Z,20.30
2022-12-24T15:03:14.464Z,25.45
2022-12-24T15:05:43.678Z,32.33
2022-12-24T15:08:12.038Z,30.70
2022-12-24T15:10:40.878Z,26.55
2022-12-24T15:13:11.108Z,28.38
2022-12-24T15:15:38.576Z,34.28
2022-12-24T15:18:06.102Z,21.55
2022-12-24T15:20:33.463Z,30.48
2022-12-24T15:23:02.096Z,28.98
2022-12-24T15:25:31.049Z,39.58
2022-12-24T15:27:59.075Z,26.75
2022-12-24T15:30:27.624Z,24.75
2022-12-24T15:32:55.929Z,22.38
2022-12-24T15:35:44.059Z,34.58
2022-12-24T15:38:20.487Z,35.40
2022-12-24T15:40:49.342Z,31.52
2022-12-24T15:43:20.107Z,39.08
2022-12-24T15:45:48.666Z,36.42
2022-12-24T15:48:20.947Z,26.75
2022-12-24T15:50:48.750Z,43.13
2022-12-24T15:53:22.028Z,46.03
2022-12-24T15:56:00.574Z,35.33
2022-12-24T15:58:28.565Z,37.63
2022-12-24T16:01:03.082Z,38.08
2022-12-24T16:03:30.545Z,30.13
2022-12-24T16:06:01.372Z,29.05
2022-12-24T16:08:33.972Z,25.90
2022-12-24T16:11:10.313Z,30.45
2022-12-24T16:13:38.729Z,37.42
2022-12-24T16:16:07.876Z,34.08
2022-12-24T16:18:36.800Z,31.15
2022-12-24T16:21:05.402Z,33.95
2022-12-24T16:23:37.974Z,40.10
2022-12-24T16:26:05.653Z,42.80
2022-12-24T16:28:33.446Z,38.58
2022-12-24T16:31:00.895Z,38.10
2022-12-24T16:33:28.849Z,29.60
2022-12-24T16:35:56.456Z,32.38
2022-12-24T16:38:23.841Z,33.78
2022-12-24T16:40:52.579Z,33.95
2022-12-24T16:43:51.840Z,38.03
2022-12-24T16:46:19.306Z,50.33
2022-12-24T16:48:48.148Z,42.70
2022-12-24T16:51:15.434Z,50.35
2022-12-24T16:53:42.787Z,48.58
2022-12-24T16:56:12.416Z,38.03
2022-12-24T16:58:39.703Z,43.92
2022-12-24T17:01:07.773Z,51.05
2022-12-24T17:03:36.034Z,45.28
2022-12-24T17:06:05.062Z,41.67
2022-12-24T17:08:32.390Z,40.05
2022-12-24T17:10:59.692Z,41.28
2022-12-24T17:13:28.339Z,42.72
2022-12-24T17:15:55.721Z,34.85
2022-12-24T17:18:23.041Z,42.47
2022-12-24T17:20:58.015Z,36.85
2022-12-24T17:23:25.274Z,39.80
2022-12-24T17:25:52.625Z,28.92
2022-12-24T17:28:19.979Z,41.40
2022-12-24T17:30:48.623Z,39.58
2022-12-24T17:33:16.059Z,40.97
2022-12-24T17:35:44.521Z,37.22
2022-12-24T17:38:11.833Z,39.78
2022-12-24T17:40:39.151Z,36.13
2022-12-24T17:43:06.481Z,44.60
2022-12-24T17:45:33.782Z,46.40
2022-12-24T17:48:02.443Z,51.45
2022-12-24T17:50:29.819Z,35.58
2022-12-24T17:52:57.782Z,40.67
2022-12-24T17:55:25.081Z,38.95
2022-12-24T17:57:52.375Z,43.25
2022-12-24T18:00:20.084Z,39.60
2022-12-24T18:02:47.540Z,39.83
2022-12-24T18:05:16.297Z,39.92
2022-12-24T18:07:43.619Z,47.97
2022-12-24T18:10:11.421Z,67.90
2022-12-24T18:12:38.764Z,56.45
2022-12-24T18:15:06.584Z,43.33
2022-12-24T18:17:33.881Z,45.63
2022-12-24T18:20:01.213Z,45.28
2022-12-24T18:22:29.888Z,43.35
2022-12-24T18:24:57.195Z,39.70
2022-12-24T18:27:24.539Z,32.47
2022-12-24T18:29:51.892Z,35.45
2022-12-24T18:32:19.240Z,56.97
2022-12-24T18:34:46.731Z,42.15
2022-12-24T18:37:14.147Z,31.33
2022-12-24T18:39:44.025Z,52.50
2022-12-24T18:42:14.442Z,45.33
2022-12-24T18:44:41.814Z,50.10
2022-12-24T18:47:09.478Z,48.38
2022-12-24T18:49:37.272Z,29.75
2022-12-24T18:52:04.913Z,35.85
2022-12-24T18:54:32.227Z,41.58
2022-12-24T18:57:00.850Z,26.10
2022-12-24T18:59:28.255Z,34.17
2022-12-24T19:01:55.721Z,35.17
2022-12-24T19:04:23.296Z,40.40
2022-12-24T19:06:53.378Z,31.27
2022-12-24T19:09:21.016Z,35.90
2022-12-24T19:11:48.381Z,23.05
2022-12-24T19:14:19.971Z,25.85
2022-12-24T19:16:47.381Z,31.38
2022-12-24T19:19:14.799Z,20.70
2022-12-24T19:21:42.122Z,33.35
2022-12-24T19:24:10.448Z,27.88
2022-12-24T19:26:37.821Z,36.60
2022-12-24T19:29:05.180Z,31.48
2022-12-24T19:31:33.896Z,34.85
2022-12-24T19:34:01.983Z,45.72
2022-12-24T19:36:30.086Z,58.30
2022-12-24T19:38:57.825Z,49.15
2022-12-24T19:41:26.044Z,66.47
2022-12-24T19:43:54.089Z,33.13
2022-12-24T19:46:22.483Z,29.08
2022-12-24T19:48:52.141Z,35.33
2022-12-24T19:51:19.868Z,38.53
2022-12-24T19:53:47.743Z,28.95
2022-12-24T19:56:15.384Z,35.88
2022-12-24T19:58:42.904Z,41.75
2022-12-24T20:01:15.638Z,31.20
2022-12-24T20:03:43.814Z,38.92
2022-12-24T20:06:12.719Z,38.13
2022-12-24T20:08:40.447Z,36.17
2022-12-24T20:11:09.366Z,35.30
2022-12-24T20:13:37.312Z,30.25
2022-12-24T20:16:05.176Z,30.70
2022-12-24T20:18:32.675Z,18.60
2022-12-24T20:21:00.226Z,21.60
2022-12-24T20:23:29.132Z,27.90
2022-12-24T20:26:00.189Z,24.67
2022-12-24T20:28:31.051Z,25.20
2022-12-24T20:30:58.449Z,20.10
2022-12-24T20:33:26.840Z,25.77
2022-12-24T20:35:54.187Z,18.92
2022-12-24T20:38:21.504Z,26.52
2022-12-24T20:40:50.179Z,25.42
2022-12-24T20:43:22.395Z,33.05
2022-12-24T20:45:51.920Z,16.03
2022-12-24T20:48:19.532Z,25.70
2022-12-24T20:50:46.874Z,27.55
2022-12-24T20:53:14.256Z,26.40
2022-12-24T20:55:41.584Z,23.35
2022-12-24T20:58:10.514Z,25.70
2022-12-24T21:00:37.827Z,15.43
2022-12-24T21:03:05.263Z,22.88
2022-12-24T21:05:32.558Z,24.73
2022-12-24T21:07:59.939Z,30.30
2022-12-24T21:10:33.859Z,34.63
2022-12-24T21:13:00.692Z,34.72
2022-12-24T21:15:30.329Z,34.63
2022-12-24T21:17:58.360Z,40.83
2022-12-24T21:20:30.376Z,38.90
2022-12-24T21:23:01.024Z,31.33
2022-12-24T21:25:28.987Z,43.45
2022-12-24T21:27:56.313Z,35.13
2022-12-24T21:30:23.936Z,29.10
2022-12-24T21:32:52.841Z,42.92
2022-12-24T21:35:20.183Z,37.22
2022-12-24T21:37:47.654Z,33.72
2022-12-24T21:40:14.993Z,30.85
2022-12-24T21:42:42.310Z,39.50
2022-12-24T21:45:10.415Z,32.42
2022-12-24T21:47:38.074Z,31.55
2022-12-24T21:50:30.101Z,48.55
2022-12-24T21:53:13.500Z,30.38
2022-12-24T21:55:40.859Z,21.83
2022-12-24T21:58:07.200Z,26.88
2022-12-24T22:00:35.622Z,22.15
2022-12-24T22:03:03.031Z,17.13
2022-12-24T22:05:33.243Z,23.02
2022-12-24T22:08:18.136Z,20.08
2022-12-24T22:11:03.034Z,20.00
2022-12-24T22:13:30.781Z,18.35
2022-12-24T22:15:58.179Z,19.63
2022-12-24T22:18:26.080Z,26.90
2022-12-24T22:20:55.204Z,20.70
2022-12-24T22:23:22.462Z,18.73
2022-12-24T22:25:49.780Z,15.25
2022-12-24T22:28:17.083Z,18.98
2022-12-24T22:30:44.527Z,22.42
2022-12-24T22:33:12.124Z,19.45
2022-12-24T22:35:39.535Z,25.10
2022-12-24T22:38:09.183Z,21.55
2022-12-24T22:40:36.879Z,23.05
2022-12-24T22:43:04.182Z,24.70
2022-12-24T22:45:31.529Z,22.55
2022-12-24T22:47:58.899Z,20.67
2022-12-24T22:50:26.199Z,25.65
2022-12-24T22:52:53.748Z,19.27
2022-12-24T22:55:22.553Z,28.05
2022-12-24T22:57:49.911Z,28.50
2022-12-24T23:00:36.286Z,25.25
2022-12-24T23:03:03.810Z,23.92
2022-12-24T23:05:31.280Z,32.17
2022-12-24T23:07:58.711Z,26.30
2022-12-24T23:10:27.624Z,29.13
2022-12-24T23:13:15.162Z,25.40
2022-12-24T23:15:42.883Z,30.15
2022-12-24T23:18:10.454Z,31.80
2022-12-24T23:20:38.979Z,22.48
2022-12-24T23:23:06.408Z,30.73
2022-12-24T23:25:35.027Z,26.73
2022-12-24T23:28:02.328Z,22.83
2022-12-24T23:30:29.673Z,28.27
2022-12-24T23:32:57.017Z,29.77
2022-12-24T23:35:24.600Z,29.65
2022-12-24T23:37:51.888Z,30.63
2022-12-24T23:40:19.393Z,32.03
2022-12-24T23:42:48.051Z,29.92
2022-12-24T23:45:15.441Z,24.63
2022-12-24T23:47:43.254Z,24.95
2022-12-24T23:50:11.523Z,28.42
2022-12-24T23:52:38.842Z,24.33
2022-12-24T23:55:06.656Z,23.50
2022-12-24T23:57:34.024Z,24.58
